Station Historical Data
Daily Summary for March 30, 2017 Units:  English    Metric   Both
« Previous Day
Next Day »
Daily Weekly Monthly Yearly Custom
  High: Low: Average:
Temperature: 42.5 °F 33.5 °F 37.7 °F
Dew Point: 35.0 °F 24.7 °F 29.8 °F
Humidity: 90% 55% 74%
Wind Speed: 13.0mph 0.0mph 4.8mph
Wind Gust: 19.0mph - -
Wind- - ENE
Pressure: 30.30 in 29.84 in -
Precipitation: 0.27 in    
Historical Graphs
 
 
Tabular Data for March 30, 2017
Time Temperature Dew Point Pressure Wind Wind Speed Wind Gust Humidity Rainfall Rate (Hourly)
00:04 37.8 °F 28.2 °F 30.25 in East 3.0 mph 7.0 mph 68% 0.00 in
00:09 37.9 °F 28.3 °F 30.25 in East 3.0 mph 7.0 mph 68% 0.00 in
00:14 37.8 °F 28.2 °F 30.25 in East 3.0 mph 8.0 mph 68% 0.00 in
00:19 37.7 °F 28.1 °F 30.25 in East 3.0 mph 8.0 mph 68% 0.00 in
00:24 37.6 °F 28.0 °F 30.24 in East 3.0 mph 8.0 mph 68% 0.00 in
00:29 37.5 °F 27.9 °F 30.24 in ENE 3.0 mph 8.0 mph 68% 0.00 in
00:34 37.4 °F 27.8 °F 30.25 in ESE 3.0 mph 5.0 mph 68% 0.00 in
00:39 37.1 °F 27.5 °F 30.25 in East 2.0 mph 5.0 mph 68% 0.00 in
00:44 37.0 °F 27.8 °F 30.25 in ENE 1.0 mph 7.0 mph 69% 0.00 in
00:49 36.8 °F 27.6 °F 30.25 in East 2.0 mph 7.0 mph 69% 0.00 in
00:54 36.6 °F 27.4 °F 30.25 in East 2.0 mph 5.0 mph 69% 0.00 in
00:59 36.5 °F 27.6 °F 30.25 in ENE 2.0 mph 5.0 mph 70% 0.00 in
01:04 36.4 °F 27.5 °F 30.25 in ENE 1.0 mph 5.0 mph 70% 0.00 in
01:09 36.3 °F 27.4 °F 30.25 in Calm   2.0 mph 70% 0.00 in
01:14 36.0 °F 27.5 °F 30.26 in Calm     71% 0.00 in
01:19 35.8 °F 27.3 °F 30.26 in Calm   2.0 mph 71% 0.00 in
01:24 35.7 °F 27.6 °F 30.27 in Calm   2.0 mph 72% 0.00 in
01:29 35.6 °F 27.5 °F 30.27 in Calm   2.0 mph 72% 0.00 in
01:34 35.4 °F 27.3 °F 30.28 in Calm     72% 0.00 in
01:39 35.3 °F 27.2 °F 30.28 in Calm   1.0 mph 72% 0.00 in
01:44 35.3 °F 27.2 °F 30.28 in Calm     72% 0.00 in
01:49 34.9 °F 27.1 °F 30.29 in Calm     73% 0.00 in
01:54 34.6 °F 26.8 °F 30.28 in Calm     73% 0.00 in
01:59 34.4 °F 27.0 °F 30.28 in Calm     74% 0.00 in
02:04 34.4 °F 27.0 °F 30.29 in Calm     74% 0.00 in
02:09 34.1 °F 26.7 °F 30.29 in Calm     74% 0.00 in
02:14 33.8 °F 27.0 °F 30.28 in Calm   1.0 mph 76% 0.00 in
02:19 34.0 °F 27.2 °F 30.28 in Calm     76% 0.00 in
02:24 33.9 °F 26.8 °F 30.28 in Calm     75% 0.00 in
02:29 33.5 °F 26.7 °F 30.28 in Calm     76% 0.00 in
02:34 33.9 °F 27.4 °F 30.28 in ENE 2.0 mph 2.0 mph 77% 0.00 in
02:39 34.6 °F 27.8 °F 30.28 in NE 1.0 mph 4.0 mph 76% 0.00 in
02:44 34.6 °F 27.8 °F 30.28 in NNE 2.0 mph 3.0 mph 76% 0.00 in
02:49 34.9 °F 27.8 °F 30.28 in NE 3.0 mph 3.0 mph 75% 0.00 in
02:54 35.0 °F 27.5 °F 30.28 in NE 2.0 mph 3.0 mph 74% 0.00 in
02:59 35.0 °F 27.5 °F 30.28 in NE 1.0 mph 3.0 mph 74% 0.00 in
03:04 35.2 °F 27.7 °F 30.28 in NE 1.0 mph 5.0 mph 74% 0.00 in
03:09 35.4 °F 27.6 °F 30.28 in NE 2.0 mph 5.0 mph 73% 0.00 in
03:14 35.6 °F 27.8 °F 30.29 in Calm   3.0 mph 73% 0.00 in
03:19 35.5 °F 27.7 °F 30.30 in NE 3.0 mph 3.0 mph 73% 0.00 in
03:24 35.7 °F 27.9 °F 30.30 in NE 2.0 mph 5.0 mph 73% 0.00 in
03:29 35.8 °F 28.0 °F 30.30 in NE 3.0 mph 6.0 mph 73% 0.00 in
03:34 35.9 °F 28.1 °F 30.30 in NE 2.0 mph 6.0 mph 73% 0.00 in
03:39 35.9 °F 28.1 °F 30.30 in NE 2.0 mph 6.0 mph 73% 0.00 in
03:44 36.0 °F 27.8 °F 30.30 in NE 5.0 mph 6.0 mph 72% 0.00 in
03:49 36.1 °F 27.9 °F 30.29 in NE 3.0 mph 8.0 mph 72% 0.00 in
03:54 36.0 °F 27.8 °F 30.29 in NE 4.0 mph 8.0 mph 72% 0.00 in
03:59 36.0 °F 28.2 °F 30.29 in NE 4.0 mph 8.0 mph 73% 0.00 in
04:04 35.9 °F 27.7 °F 30.29 in NE 5.0 mph 10.0 mph 72% 0.00 in
04:09 35.9 °F 27.7 °F 30.29 in NE 5.0 mph 10.0 mph 72% 0.00 in
04:14 35.8 °F 27.7 °F 30.29 in NE 9.0 mph 10.0 mph 72% 0.00 in
04:19 35.8 °F 27.7 °F 30.29 in NE 5.0 mph 11.0 mph 72% 0.00 in
04:24 35.7 °F 27.6 °F 30.28 in NE 6.0 mph 11.0 mph 72% 0.00 in
04:29 35.7 °F 27.6 °F 30.27 in ENE 11.0 mph 11.0 mph 72% 0.00 in
04:34 35.6 °F 27.5 °F 30.28 in NE 7.0 mph 13.0 mph 72% 0.00 in
04:39 35.5 °F 27.4 °F 30.27 in NE 3.0 mph 9.0 mph 72% 0.00 in
04:44 35.5 °F 27.7 °F 30.27 in NE 5.0 mph 8.0 mph 73% 0.00 in
04:49 35.5 °F 27.7 °F 30.27 in NE 2.0 mph 9.0 mph 73% 0.00 in
04:54 35.5 °F 27.7 °F 30.27 in ENE 4.0 mph 9.0 mph 73% 0.00 in
04:59 35.5 °F 27.7 °F 30.26 in ENE 4.0 mph 10.0 mph 73% 0.00 in
05:04 35.4 °F 27.6 °F 30.26 in ENE 4.0 mph 10.0 mph 73% 0.00 in
05:09 35.4 °F 27.6 °F 30.26 in ENE 4.0 mph 9.0 mph 73% 0.00 in
05:14 35.5 °F 27.7 °F 30.26 in ENE 4.0 mph 9.0 mph 73% 0.00 in
05:19 35.4 °F 27.6 °F 30.25 in ENE 4.0 mph 10.0 mph 73% 0.00 in
05:24 35.4 °F 27.6 °F 30.25 in ENE 2.0 mph 11.0 mph 73% 0.00 in
05:29 35.5 °F 27.4 °F 30.25 in NE 6.0 mph 13.0 mph 72% 0.00 in
05:34 35.5 °F 27.4 °F 30.25 in NNE 6.0 mph 10.0 mph 72% 0.00 in
05:39 35.5 °F 27.4 °F 30.25 in SE 3.0 mph 9.0 mph 72% 0.00 in
05:44 35.5 °F 27.4 °F 30.25 in NNE 4.0 mph 9.0 mph 72% 0.00 in
05:49 35.5 °F 27.4 °F 30.25 in ENE 4.0 mph 9.0 mph 72% 0.00 in
05:54 35.5 °F 27.7 °F 30.26 in ENE 4.0 mph 8.0 mph 73% 0.00 in
05:59 35.4 °F 27.6 °F 30.26 in ENE 4.0 mph 10.0 mph 73% 0.00 in
06:04 35.4 °F 27.6 °F 30.25 in ENE 4.0 mph 10.0 mph 73% 0.00 in
06:09 35.5 °F 27.4 °F 30.25 in NE 2.0 mph 11.0 mph 72% 0.00 in
06:14 35.5 °F 27.4 °F 30.26 in East 3.0 mph 11.0 mph 72% 0.00 in
06:19 35.5 °F 27.0 °F 30.25 in ENE 4.0 mph 11.0 mph 71% 0.00 in
06:24 35.5 °F 26.7 °F 30.25 in ENE 5.0 mph 11.0 mph 70% 0.00 in
06:29 35.6 °F 26.4 °F 30.25 in ENE 5.0 mph 11.0 mph 69% 0.00 in
06:34 35.6 °F 26.1 °F 30.25 in East 5.0 mph 12.0 mph 68% 0.00 in
06:39 35.6 °F 25.7 °F 30.25 in ESE 8.0 mph 13.0 mph 67% 0.00 in
06:44 35.5 °F 25.3 °F 30.24 in ENE 2.0 mph 15.0 mph 66% 0.00 in
06:49 35.5 °F 25.3 °F 30.25 in East 5.0 mph 9.0 mph 66% 0.00 in
06:54 35.4 °F 25.2 °F 30.25 in ENE 4.0 mph 10.0 mph 66% 0.00 in
06:59 35.4 °F 24.8 °F 30.24 in ENE 5.0 mph 12.0 mph 65% 0.00 in
07:04 35.3 °F 24.7 °F 30.24 in ENE 5.0 mph 12.0 mph 65% 0.00 in
07:09 35.4 °F 25.2 °F 30.25 in NNE 4.0 mph 7.0 mph 66% 0.00 in
07:14 35.5 °F 24.9 °F 30.24 in NNE 13.0 mph 13.0 mph 65% 0.00 in
07:19 35.6 °F 25.0 °F 30.24 in East 3.0 mph 13.0 mph 65% 0.00 in
07:24 35.5 °F 24.9 °F 30.24 in ENE 5.0 mph 13.0 mph 65% 0.00 in
07:29 35.6 °F 25.0 °F 30.24 in East 4.0 mph 11.0 mph 65% 0.00 in
07:34 35.6 °F 25.0 °F 30.25 in ENE 1.0 mph 13.0 mph 65% 0.00 in
07:39 35.6 °F 25.0 °F 30.25 in ENE 4.0 mph 11.0 mph 65% 0.00 in
07:44 35.6 °F 25.0 °F 30.24 in ESE 5.0 mph 8.0 mph 65% 0.00 in
07:49 35.6 °F 25.0 °F 30.24 in East 5.0 mph 13.0 mph 65% 0.00 in
07:54 35.7 °F 25.4 °F 30.24 in ENE 4.0 mph 13.0 mph 66% 0.00 in
07:59 35.7 °F 25.4 °F 30.24 in ENE 4.0 mph 11.0 mph 66% 0.00 in
08:04 35.6 °F 25.4 °F 30.24 in ENE 4.0 mph 11.0 mph 66% 0.00 in
08:09 35.6 °F 25.4 °F 30.24 in East 5.0 mph 14.0 mph 66% 0.00 in
08:14 35.7 °F 25.4 °F 30.25 in East 5.0 mph 10.0 mph 66% 0.00 in
08:19 35.7 °F 25.4 °F 30.25 in NE 3.0 mph 11.0 mph 66% 0.00 in
08:24 35.8 °F 25.2 °F 30.25 in East 2.0 mph 7.0 mph 65% 0.00 in
08:29 35.9 °F 25.3 °F 30.24 in ENE 4.0 mph 9.0 mph 65% 0.00 in
08:34 36.0 °F 25.4 °F 30.24 in East 4.0 mph 10.0 mph 65% 0.00 in
08:39 36.1 °F 25.5 °F 30.23 in East 6.0 mph 11.0 mph 65% 0.00 in
08:44 36.1 °F 25.8 °F 30.23 in NE 5.0 mph 10.0 mph 66% 0.00 in
08:49 36.3 °F 26.0 °F 30.22 in ENE 4.0 mph 10.0 mph 66% 0.00 in
08:54 36.3 °F 25.3 °F 30.22 in ESE 4.0 mph 10.0 mph 64% 0.00 in
08:59 36.5 °F 25.8 °F 30.22 in ENE 4.0 mph 10.0 mph 65% 0.00 in
09:04 36.6 °F 25.6 °F 30.22 in East 5.0 mph 13.0 mph 64% 0.00 in
09:09 36.7 °F 25.3 °F 30.22 in East 3.0 mph 13.0 mph 63% 0.00 in
09:14 37.0 °F 25.6 °F 30.22 in East 3.0 mph 8.0 mph 63% 0.00 in
09:19 37.3 °F 26.2 °F 30.22 in NE 3.0 mph 9.0 mph 64% 0.00 in
09:24 37.4 °F 25.6 °F 30.22 in SE 6.0 mph 13.0 mph 62% 0.00 in
09:29 37.5 °F 25.7 °F 30.21 in East 6.0 mph 15.0 mph 62% 0.00 in
09:34 37.9 °F 26.0 °F 30.19 in East 6.0 mph 15.0 mph 62% 0.00 in
09:39 38.2 °F 26.3 °F 30.18 in ENE 6.0 mph 15.0 mph 62% 0.00 in
09:44 38.9 °F 26.2 °F 30.18 in ENE 6.0 mph 14.0 mph 60% 0.00 in
09:49 39.1 °F 26.8 °F 30.19 in East 5.0 mph 13.0 mph 61% 0.00 in
09:54 39.2 °F 26.9 °F 30.19 in East 6.0 mph 14.0 mph 61% 0.00 in
09:59 39.4 °F 26.7 °F 30.18 in East 9.0 mph 10.0 mph 60% 0.00 in
10:04 39.3 °F 26.6 °F 30.18 in NE 5.0 mph 14.0 mph 60% 0.00 in
10:09 39.4 °F 26.2 °F 30.18 in East 3.0 mph 12.0 mph 59% 0.00 in
10:14 39.3 °F 26.6 °F 30.18 in East 8.0 mph 15.0 mph 60% 0.00 in
10:19 39.3 °F 25.7 °F 30.18 in East 7.0 mph 13.0 mph 58% 0.00 in
10:24 39.4 °F 26.2 °F 30.18 in East 7.0 mph 13.0 mph 59% 0.00 in
10:29 39.5 °F 26.3 °F 30.17 in ENE 7.0 mph 15.0 mph 59% 0.00 in
10:34 39.8 °F 26.6 °F 30.17 in ENE 7.0 mph 15.0 mph 59% 0.00 in
10:39 40.2 °F 27.0 °F 30.18 in ENE 6.0 mph 13.0 mph 59% 0.00 in
10:44 40.5 °F 26.9 °F 30.19 in ENE 5.0 mph 13.0 mph 58% 0.00 in
10:49 40.7 °F 27.1 °F 30.19 in ESE 8.0 mph 12.0 mph 58% 0.00 in
10:54 40.6 °F 27.0 °F 30.19 in ENE 7.0 mph 13.0 mph 58% 0.00 in
10:59 40.7 °F 26.6 °F 30.19 in ENE 7.0 mph 17.0 mph 57% 0.00 in
11:04 41.1 °F 27.0 °F 30.20 in East 6.0 mph 14.0 mph 57% 0.00 in
11:09 41.1 °F 27.4 °F 30.20 in NE 4.0 mph 10.0 mph 58% 0.00 in
11:14 41.6 °F 27.1 °F 30.20 in East 6.0 mph 10.0 mph 56% 0.00 in
11:19 41.8 °F 27.2 °F 30.21 in NNE 7.0 mph 15.0 mph 56% 0.00 in
11:24 41.8 °F 27.7 °F 30.21 in NE 6.0 mph 10.0 mph 57% 0.00 in
11:29 41.9 °F 27.3 °F 30.20 in ENE 5.0 mph 13.0 mph 56% 0.00 in
11:34 41.6 °F 27.1 °F 30.20 in East 7.0 mph 15.0 mph 56% 0.00 in
11:39 41.8 °F 27.2 °F 30.19 in East 7.0 mph 15.0 mph 56% 0.00 in
11:44 42.0 °F 27.4 °F 30.19 in East 6.0 mph 15.0 mph 56% 0.00 in
11:49 42.2 °F 28.0 °F 30.19 in East 6.0 mph 14.0 mph 57% 0.00 in
11:54 42.1 °F 27.5 °F 30.18 in ENE 5.0 mph 13.0 mph 56% 0.00 in
11:59 41.9 °F 27.3 °F 30.18 in East 5.0 mph 13.0 mph 56% 0.00 in
12:04 41.9 °F 27.8 °F 30.17 in ENE 5.0 mph 13.0 mph 57% 0.00 in
12:09 41.9 °F 28.2 °F 30.16 in ENE 3.0 mph 9.0 mph 58% 0.00 in
12:14 41.9 °F 27.8 °F 30.16 in NE 4.0 mph 9.0 mph 57% 0.00 in
12:19 42.0 °F 27.9 °F 30.16 in ENE 4.0 mph 10.0 mph 57% 0.00 in
12:24 42.2 °F 28.0 °F 30.15 in NE 11.0 mph 13.0 mph 57% 0.00 in
12:29 42.3 °F 27.7 °F 30.15 in ENE 4.0 mph 13.0 mph 56% 0.00 in
12:34 42.2 °F 27.2 °F 30.15 in East 5.0 mph 13.0 mph 55% 0.00 in
12:39 42.2 °F 27.2 °F 30.15 in East 5.0 mph 13.0 mph 55% 0.00 in
12:44 42.1 °F 27.1 °F 30.15 in East 9.0 mph 10.0 mph 55% 0.00 in
12:49 42.0 °F 27.0 °F 30.15 in ENE 8.0 mph 14.0 mph 55% 0.00 in
12:54 42.0 °F 27.4 °F 30.15 in East 7.0 mph 13.0 mph 56% 0.00 in
12:59 42.1 °F 27.1 °F 30.15 in ENE 5.0 mph 13.0 mph 55% 0.00 in
13:04 42.0 °F 27.0 °F 30.15 in ENE 5.0 mph 14.0 mph 55% 0.00 in
13:09 41.9 °F 27.3 °F 30.15 in ESE 9.0 mph 15.0 mph 56% 0.00 in
13:14 41.9 °F 27.3 °F 30.14 in NE 6.0 mph 11.0 mph 56% 0.00 in
13:19 42.0 °F 27.4 °F 30.14 in ENE 3.0 mph 10.0 mph 56% 0.00 in
13:24 42.0 °F 27.9 °F 30.14 in ESE 9.0 mph 9.0 mph 57% 0.00 in
13:29 41.9 °F 27.8 °F 30.14 in ENE 5.0 mph 12.0 mph 57% 0.00 in
13:34 42.0 °F 27.9 °F 30.14 in ENE 6.0 mph 13.0 mph 57% 0.00 in
13:39 42.0 °F 28.3 °F 30.14 in ENE 5.0 mph 13.0 mph 58% 0.00 in
13:44 42.2 °F 28.0 °F 30.14 in ESE 7.0 mph 11.0 mph 57% 0.00 in
13:49 42.2 °F 28.0 °F 30.14 in East 7.0 mph 11.0 mph 57% 0.00 in
13:54 42.3 °F 28.1 °F 30.14 in East 2.0 mph 10.0 mph 57% 0.00 in
13:59 42.5 °F 28.8 °F 30.13 in East 4.0 mph 10.0 mph 58% 0.00 in
14:04 42.5 °F 28.3 °F 30.13 in East 4.0 mph 11.0 mph 57% 0.00 in
14:09 42.5 °F 28.3 °F 30.13 in East 5.0 mph 11.0 mph 57% 0.00 in
14:14 42.5 °F 27.9 °F 30.13 in ENE 4.0 mph 8.0 mph 56% 0.00 in
14:19 41.9 °F 29.8 °F 30.13 in NE 1.0 mph 15.0 mph 62% 0.00 in
14:24 41.2 °F 29.9 °F 30.13 in SSE 3.0 mph 10.0 mph 64% 0.00 in
14:29 40.6 °F 30.1 °F 30.13 in ESE 5.0 mph 13.0 mph 66% 0.00 in
14:34 40.0 °F 31.4 °F 30.13 in ESE 5.0 mph 15.0 mph 71% 0.00 in
14:39 39.6 °F 31.3 °F 30.12 in South 2.0 mph 13.0 mph 72% 0.00 in
14:44 39.0 °F 31.7 °F 30.12 in SSE 4.0 mph 11.0 mph 75% 0.00 in
14:49 38.0 °F 31.7 °F 30.11 in SE 9.0 mph 15.0 mph 78% 0.01 in
14:54 37.3 °F 32.0 °F 30.10 in ESE 5.0 mph 12.0 mph 81% 0.01 in
14:59 36.8 °F 31.8 °F 30.08 in ESE 6.0 mph 13.0 mph 82% 0.02 in
15:04 36.8 °F 32.4 °F 30.09 in ESE 5.0 mph 13.0 mph 84% 0.02 in
15:09 36.7 °F 32.6 °F 30.10 in ESE 4.0 mph 11.0 mph 85% 0.02 in
15:14 36.4 °F 32.3 °F 30.10 in ESE 5.0 mph 12.0 mph 85% 0.03 in
15:19 36.4 °F 32.6 °F 30.09 in ESE 4.0 mph 12.0 mph 86% 0.04 in
15:24 36.3 °F 32.5 °F 30.09 in East 7.0 mph 10.0 mph 86% 0.04 in
15:29 36.3 °F 32.8 °F 30.09 in SE 1.0 mph 10.0 mph 87% 0.04 in
15:34 36.4 °F 32.9 °F 30.09 in East 5.0 mph 12.0 mph 87% 0.04 in
15:39 36.4 °F 32.9 °F 30.10 in East 5.0 mph 12.0 mph 87% 0.04 in
15:44 36.5 °F 33.0 °F 30.09 in ENE 4.0 mph 9.0 mph 87% 0.04 in
15:49 36.7 °F 33.5 °F 30.08 in NE 2.0 mph 14.0 mph 88% 0.04 in
15:54 36.7 °F 33.5 °F 30.08 in ESE 2.0 mph 8.0 mph 88% 0.04 in
15:59 36.6 °F 33.1 °F 30.07 in NE 6.0 mph 14.0 mph 87% 0.03 in
16:04 36.8 °F 33.6 °F 30.06 in East 5.0 mph 14.0 mph 88% 0.03 in
16:09 36.9 °F 33.7 °F 30.05 in East 6.0 mph 13.0 mph 88% 0.04 in
16:14 37.0 °F 33.8 °F 30.05 in East 6.0 mph 13.0 mph 88% 0.03 in
16:19 37.1 °F 33.9 °F 30.04 in ENE 6.0 mph 14.0 mph 88% 0.02 in
16:24 37.2 °F 34.0 °F 30.06 in ENE 7.0 mph 14.0 mph 88% 0.02 in
16:29 37.2 °F 33.7 °F 30.05 in ENE 5.0 mph 12.0 mph 87% 0.02 in
16:34 37.3 °F 33.8 °F 30.04 in East 10.0 mph 13.0 mph 87% 0.02 in
16:39 37.5 °F 34.0 °F 30.05 in ENE 6.0 mph 13.0 mph 87% 0.02 in
16:44 37.7 °F 33.9 °F 30.03 in NE 5.0 mph 12.0 mph 86% 0.02 in
16:49 37.7 °F 33.9 °F 30.02 in ENE 4.0 mph 14.0 mph 86% 0.01 in
16:54 37.9 °F 34.1 °F 30.01 in ESE 7.0 mph 11.0 mph 86% 0.01 in
16:59 37.9 °F 33.8 °F 30.01 in ENE 4.0 mph 15.0 mph 85% 0.01 in
17:04 38.0 °F 33.9 °F 30.01 in ENE 8.0 mph 15.0 mph 85% 0.01 in
17:09 38.0 °F 33.9 °F 30.01 in ENE 6.0 mph 15.0 mph 85% 0.00 in
17:14 38.1 °F 34.0 °F 30.01 in ENE 6.0 mph 13.0 mph 85% 0.00 in
17:19 38.1 °F 34.0 °F 30.01 in ENE 6.0 mph 14.0 mph 85% 0.00 in
17:24 38.1 °F 33.7 °F 30.01 in ENE 6.0 mph 16.0 mph 84% 0.00 in
17:29 38.2 °F 33.8 °F 30.02 in ENE 6.0 mph 16.0 mph 84% 0.00 in
17:34 38.3 °F 33.9 °F 30.03 in NE 6.0 mph 15.0 mph 84% 0.00 in
17:39 38.5 °F 34.1 °F 30.02 in NE 3.0 mph 10.0 mph 84% 0.00 in
17:44 38.5 °F 34.1 °F 30.02 in ENE 4.0 mph 11.0 mph 84% 0.00 in
17:49 38.6 °F 34.2 °F 30.03 in NE 7.0 mph 12.0 mph 84% 0.00 in
17:54 38.6 °F 34.2 °F 30.03 in NE 4.0 mph 9.0 mph 84% 0.00 in
17:59 38.7 °F 34.3 °F 30.02 in East 3.0 mph 11.0 mph 84% 0.00 in
18:04 38.8 °F 34.4 °F 30.02 in ENE 9.0 mph 15.0 mph 84% 0.00 in
18:09 38.8 °F 34.1 °F 30.01 in ENE 8.0 mph 14.0 mph 83% 0.00 in
18:14 38.8 °F 34.4 °F 30.00 in ENE 7.0 mph 14.0 mph 84% 0.00 in
18:19 38.7 °F 34.3 °F 29.99 in ENE 5.0 mph 11.0 mph 84% 0.00 in
18:24 38.6 °F 34.2 °F 29.98 in ENE 7.0 mph 14.0 mph 84% 0.00 in
18:29 38.5 °F 34.1 °F 29.98 in ENE 8.0 mph 14.0 mph 84% 0.00 in
18:34 38.5 °F 34.1 °F 29.97 in ENE 7.0 mph 15.0 mph 84% 0.00 in
18:39 38.5 °F 34.1 °F 29.95 in NE 11.0 mph 11.0 mph 84% 0.00 in
18:44 38.4 °F 34.0 °F 29.94 in East 9.0 mph 16.0 mph 84% 0.00 in
18:49 38.4 °F 34.0 °F 29.95 in ENE 7.0 mph 16.0 mph 84% 0.00 in
18:54 38.4 °F 34.0 °F 29.96 in ENE 7.0 mph 16.0 mph 84% 0.00 in
18:59 38.4 °F 34.0 °F 29.98 in ENE 6.0 mph 16.0 mph 84% 0.00 in
19:04 38.4 °F 34.0 °F 29.98 in East 5.0 mph 12.0 mph 84% 0.00 in
19:09 38.4 °F 34.3 °F 29.99 in East 8.0 mph 12.0 mph 85% 0.00 in
19:14 38.4 °F 34.3 °F 29.99 in NNE 4.0 mph 10.0 mph 85% 0.00 in
19:19 38.4 °F 34.3 °F 30.00 in East 5.0 mph 10.0 mph 85% 0.00 in
19:24 38.4 °F 34.3 °F 29.98 in ENE 5.0 mph 10.0 mph 85% 0.00 in
19:29 38.4 °F 34.3 °F 29.99 in ENE 5.0 mph 11.0 mph 85% 0.01 in
19:34 38.3 °F 34.5 °F 30.01 in ENE 5.0 mph 11.0 mph 86% 0.01 in
19:39 38.3 °F 34.5 °F 30.01 in ENE 4.0 mph 8.0 mph 86% 0.02 in
19:44 38.3 °F 34.8 °F 30.02 in ENE 3.0 mph 8.0 mph 87% 0.04 in
19:49 38.2 °F 34.7 °F 30.00 in NE 4.0 mph 9.0 mph 87% 0.06 in
19:54 38.1 °F 34.6 °F 29.99 in ENE 4.0 mph 12.0 mph 87% 0.08 in
19:59 38.0 °F 34.5 °F 29.98 in East 3.0 mph 11.0 mph 87% 0.09 in
20:04 37.9 °F 34.7 °F 29.98 in ENE 3.0 mph 10.0 mph 88% 0.10 in
20:09 37.9 °F 34.7 °F 29.99 in NE 5.0 mph 9.0 mph 88% 0.11 in
20:14 37.8 °F 34.6 °F 29.98 in NE 6.0 mph 12.0 mph 88% 0.11 in
20:19 37.8 °F 34.6 °F 29.97 in ENE 5.0 mph 12.0 mph 88% 0.12 in
20:24 37.7 °F 34.8 °F 29.98 in ENE 5.0 mph 11.0 mph 89% 0.14 in
20:29 37.7 °F 34.8 °F 29.96 in ENE 5.0 mph 12.0 mph 89% 0.14 in
20:34 37.7 °F 34.8 °F 29.98 in ENE 5.0 mph 12.0 mph 89% 0.15 in
20:39 37.6 °F 34.7 °F 29.98 in ENE 4.0 mph 8.0 mph 89% 0.15 in
20:44 37.6 °F 34.7 °F 29.98 in East 4.0 mph 10.0 mph 89% 0.13 in
20:49 37.6 °F 34.7 °F 29.97 in NE 6.0 mph 9.0 mph 89% 0.12 in
20:54 37.6 °F 34.7 °F 29.96 in NE 4.0 mph 11.0 mph 89% 0.11 in
20:59 37.6 °F 34.9 °F 29.97 in ENE 3.0 mph 11.0 mph 90% 0.11 in
21:04 37.7 °F 35.0 °F 29.97 in ENE 4.0 mph 9.0 mph 90% 0.10 in
21:09 37.6 °F 34.9 °F 29.97 in NNE 2.0 mph 10.0 mph 90% 0.09 in
21:14 37.6 °F 34.9 °F 29.97 in NNE 5.0 mph 13.0 mph 90% 0.10 in
21:19 37.6 °F 34.9 °F 29.97 in NE 8.0 mph 12.0 mph 90% 0.09 in
21:24 37.5 °F 34.8 °F 29.97 in NE 7.0 mph 13.0 mph 90% 0.07 in
21:29 37.5 °F 34.8 °F 29.97 in NE 8.0 mph 14.0 mph 90% 0.06 in
21:34 37.4 °F 34.7 °F 29.97 in NE 8.0 mph 14.0 mph 90% 0.05 in
21:40 37.4 °F 34.7 °F 29.97 in NE 6.0 mph 13.0 mph 90% 0.04 in
21:45 37.2 °F 34.5 °F 29.96 in NE 9.0 mph 14.0 mph 90% 0.04 in
21:59 37.2 °F 34.5 °F 29.95 in NE 7.0 mph 14.0 mph 90% 0.03 in
22:05 37.3 °F 34.6 °F 29.95 in NE 12.0 mph 17.0 mph 90% 0.00 in
22:10 37.4 °F 34.7 °F 29.94 in ENE 8.0 mph 17.0 mph 90% 0.00 in
22:15 37.4 °F 34.7 °F 29.94 in NE 7.0 mph 17.0 mph 90% 0.00 in
22:20 37.5 °F 34.8 °F 29.93 in NE 8.0 mph 11.0 mph 90% 0.00 in
22:25 37.5 °F 34.8 °F 29.93 in ENE 8.0 mph 11.0 mph 90% 0.00 in
22:30 37.5 °F 34.6 °F 29.93 in NE 3.0 mph 17.0 mph 89% 0.00 in
22:35 37.6 °F 34.7 °F 29.94 in East 7.0 mph 11.0 mph 89% 0.00 in
22:40 37.7 °F 34.8 °F 29.94 in ENE 9.0 mph 13.0 mph 89% 0.00 in
22:45 37.7 °F 34.8 °F 29.95 in ENE 5.0 mph 13.0 mph 89% 0.00 in
22:50 37.8 °F 34.8 °F 29.94 in ENE 6.0 mph 15.0 mph 89% 0.00 in
22:55 37.8 °F 34.8 °F 29.94 in ENE 6.0 mph 15.0 mph 89% 0.00 in
23:00 37.9 °F 34.9 °F 29.93 in ENE 5.0 mph 11.0 mph 89% 0.00 in
23:05 37.9 °F 34.9 °F 29.93 in ENE 6.0 mph 11.0 mph 89% 0.00 in
23:10 37.9 °F 34.9 °F 29.94 in NE 6.0 mph 12.0 mph 89% 0.00 in
23:15 37.9 °F 34.7 °F 29.95 in ENE 10.0 mph 13.0 mph 88% 0.00 in
23:20 37.9 °F 34.7 °F 29.94 in NE 9.0 mph 14.0 mph 88% 0.00 in
23:25 38.0 °F 34.8 °F 29.92 in NE 7.0 mph 15.0 mph 88% 0.00 in
23:30 38.0 °F 34.8 °F 29.88 in ENE 5.0 mph 18.0 mph 88% 0.00 in
23:35 37.9 °F 34.7 °F 29.86 in ENE 9.0 mph 17.0 mph 88% 0.00 in
23:40 37.9 °F 34.7 °F 29.85 in ESE 8.0 mph 17.0 mph 88% 0.00 in
23:45 37.8 °F 34.6 °F 29.84 in SE 9.0 mph 19.0 mph 88% 0.00 in
23:50 37.7 °F 34.5 °F 29.85 in SE 10.0 mph 18.0 mph 88% 0.00 in
23:55 37.7 °F 34.5 °F 29.85 in East 8.0 mph 18.0 mph 88% 0.00 in
Buffalo, New York, USA
Compliments of Weather Underground - 2.5 mb